createdAt,value
2022-09-09T00:01:12.125Z,3.22
2022-09-09T00:03:52.491Z,2.97
2022-09-09T00:06:32.325Z,2.40
2022-09-09T00:09:02.511Z,1.85
2022-09-09T00:11:53.007Z,1.92
2022-09-09T00:14:32.609Z,1.70
2022-09-09T00:17:05.197Z,1.50
2022-09-09T00:19:41.417Z,1.38
2022-09-09T00:22:24.065Z,1.30
2022-09-09T00:24:55.008Z,1.33
2022-09-09T00:27:36.801Z,1.10
2022-09-09T00:30:12.458Z,1.10
2022-09-09T00:32:39.204Z,1.10
2022-09-09T00:35:19.844Z,1.10
2022-09-09T00:37:50.125Z,1.42
2022-09-09T00:40:27.948Z,1.33
2022-09-09T00:43:11.984Z,1.27
2022-09-09T00:45:57.567Z,1.40
2022-09-09T00:48:37.872Z,1.30
2022-09-09T00:51:18.942Z,1.60
2022-09-09T00:54:06.492Z,1.40
2022-09-09T00:56:43.357Z,1.20
2022-09-09T00:59:37.444Z,1.90
2022-09-09T01:02:32.648Z,1.92
2022-09-09T01:05:08.494Z,2.10
2022-09-09T01:07:35.480Z,2.60
2022-09-09T01:10:13.319Z,2.55
2022-09-09T01:12:44.924Z,3.40
2022-09-09T01:15:18.083Z,3.75
2022-09-09T01:17:47.461Z,4.00
2022-09-09T01:20:42.539Z,2.70
2022-09-09T01:23:26.256Z,2.38
2022-09-09T01:26:17.384Z,4.43
2022-09-09T01:28:49.971Z,3.17
2022-09-09T01:31:39.402Z,3.78
2022-09-09T01:34:16.449Z,3.22
2022-09-09T01:36:53.263Z,1.67
2022-09-09T01:39:21.113Z,1.45
2022-09-09T01:41:48.098Z,1.50
2022-09-09T01:44:15.154Z,1.48
2022-09-09T01:46:41.927Z,1.73
2022-09-09T01:49:10.005Z,1.95
2022-09-09T01:51:39.833Z,1.88
2022-09-09T01:54:08.024Z,1.75
2022-09-09T01:56:45.622Z,1.92
2022-09-09T01:59:15.159Z,2.30
2022-09-09T02:01:56.924Z,2.65
2022-09-09T02:04:43.802Z,2.88
2022-09-09T02:07:40.291Z,3.53
2022-09-09T02:10:22.026Z,2.10
2022-09-09T02:12:54.620Z,2.15
2022-09-09T02:15:53.624Z,2.20
2022-09-09T02:18:28.595Z,2.33
2022-09-09T02:20:56.886Z,2.00
2022-09-09T02:23:23.999Z,3.03
2022-09-09T02:25:54.138Z,4.10
2022-09-09T02:28:26.583Z,2.60
2022-09-09T02:30:56.422Z,2.40
2022-09-09T02:33:30.068Z,2.83
2022-09-09T02:36:02.944Z,2.50
2022-09-09T02:38:33.579Z,3.17
2022-09-09T02:41:00.433Z,4.20
2022-09-09T02:43:27.229Z,2.90
2022-09-09T02:46:25.064Z,3.10
2022-09-09T02:48:57.779Z,1.90
2022-09-09T02:51:35.071Z,1.77
2022-09-09T02:54:31.857Z,2.40
2022-09-09T02:57:20.715Z,2.53
2022-09-09T02:59:48.174Z,5.13
2022-09-09T03:02:15.088Z,2.10
2022-09-09T03:04:44.920Z,2.30
2022-09-09T03:07:13.247Z,1.60
2022-09-09T03:09:39.896Z,1.90
2022-09-09T03:12:07.312Z,2.92
2022-09-09T03:14:34.143Z,1.70
2022-09-09T03:17:02.098Z,2.50
2022-09-09T03:19:29.075Z,2.80
2022-09-09T03:21:55.786Z,2.83
2022-09-09T03:24:23.776Z,2.28
2022-09-09T03:26:51.672Z,2.00
2022-09-09T03:29:19.652Z,2.83
2022-09-09T03:31:46.551Z,3.35
2022-09-09T03:34:14.782Z,2.38
2022-09-09T03:36:42.345Z,1.98
2022-09-09T03:39:09.092Z,3.25
2022-09-09T03:41:35.833Z,5.53
2022-09-09T03:44:02.811Z,2.80
2022-09-09T03:46:29.604Z,3.00
2022-09-09T03:48:56.627Z,4.85
2022-09-09T03:51:23.557Z,3.60
2022-09-09T03:53:50.266Z,2.28
2022-09-09T03:56:17.097Z,1.90
2022-09-09T03:58:43.796Z,2.03
2022-09-09T04:01:15.311Z,2.63
2022-09-09T04:03:42.354Z,1.95
2022-09-09T04:06:11.985Z,4.00
2022-09-09T04:08:39.667Z,2.13
2022-09-09T04:11:07.538Z,2.42
2022-09-09T04:13:40.335Z,2.20
2022-09-09T04:16:07.926Z,2.05
2022-09-09T04:18:35.710Z,2.40
2022-09-09T04:21:04.779Z,2.42
2022-09-09T04:23:31.842Z,2.88
2022-09-09T04:26:00.349Z,2.75
2022-09-09T04:28:30.022Z,2.10
2022-09-09T04:30:58.066Z,4.35
2022-09-09T04:33:28.661Z,5.93
2022-09-09T04:35:55.809Z,3.40
2022-09-09T04:38:24.216Z,3.30
2022-09-09T04:40:52.959Z,2.95
2022-09-09T04:43:23.610Z,2.65
2022-09-09T04:45:52.498Z,3.40
2022-09-09T04:48:19.996Z,3.83
2022-09-09T04:50:58.896Z,2.35
2022-09-09T04:53:26.713Z,2.00
2022-09-09T04:56:02.505Z,1.80
2022-09-09T04:58:29.535Z,2.20
2022-09-09T05:00:56.320Z,1.88
2022-09-09T05:03:23.179Z,2.53
2022-09-09T05:05:50.181Z,2.03
2022-09-09T05:08:16.905Z,2.20
2022-09-09T05:10:43.638Z,2.33
2022-09-09T05:13:10.319Z,4.00
2022-09-09T05:15:37.327Z,3.40
2022-09-09T05:18:04.209Z,2.35
2022-09-09T05:20:30.942Z,2.90
2022-09-09T05:22:58.084Z,2.15
2022-09-09T05:25:28.317Z,3.65
2022-09-09T05:27:55.040Z,2.10
2022-09-09T05:30:24.381Z,1.80
2022-09-09T05:32:51.457Z,4.38
2022-09-09T05:35:20.194Z,4.15
2022-09-09T05:37:47.205Z,3.40
2022-09-09T05:40:14.092Z,3.65
2022-09-09T05:42:41.765Z,1.90
2022-09-09T05:45:09.989Z,2.10
2022-09-09T05:47:38.477Z,2.33
2022-09-09T05:50:05.696Z,4.32
2022-09-09T05:52:33.016Z,3.08
2022-09-09T05:55:00.885Z,4.40
2022-09-09T05:57:27.864Z,2.97
2022-09-09T05:59:54.845Z,2.30
2022-09-09T06:02:22.072Z,2.10
2022-09-09T06:04:48.877Z,2.05
2022-09-09T06:07:15.900Z,1.90
2022-09-09T06:09:42.652Z,1.63
2022-09-09T06:12:10.134Z,2.03
2022-09-09T06:14:38.007Z,3.63
2022-09-09T06:17:05.027Z,2.65
2022-09-09T06:19:32.016Z,1.60
2022-09-09T06:21:59.676Z,2.03
2022-09-09T06:24:26.415Z,2.05
2022-09-09T06:26:53.139Z,2.13
2022-09-09T06:29:19.823Z,2.00
2022-09-09T06:31:46.698Z,2.20
2022-09-09T06:34:13.978Z,1.75
2022-09-09T06:36:41.047Z,1.83
2022-09-09T06:39:14.204Z,1.50
2022-09-09T06:41:42.165Z,2.10
2022-09-09T06:44:09.182Z,1.58
2022-09-09T06:46:36.807Z,1.27
2022-09-09T06:49:04.791Z,1.10
2022-09-09T06:51:36.060Z,1.27
2022-09-09T06:54:04.782Z,1.05
2022-09-09T06:56:44.241Z,1.20
2022-09-09T06:59:11.950Z,1.10
2022-09-09T07:01:50.324Z,1.70
2022-09-09T07:04:19.531Z,1.07
2022-09-09T07:06:47.647Z,1.48
2022-09-09T07:09:16.713Z,1.20
2022-09-09T07:11:54.417Z,1.95
2022-09-09T07:14:21.882Z,1.30
2022-09-09T07:16:48.830Z,1.50
2022-09-09T07:19:16.134Z,1.15
2022-09-09T07:21:43.733Z,1.20
2022-09-09T07:24:11.829Z,1.10
2022-09-09T07:26:40.059Z,0.77
2022-09-09T07:29:07.190Z,0.60
2022-09-09T07:31:37.911Z,0.40
2022-09-09T07:34:06.286Z,0.73
2022-09-09T07:36:35.799Z,0.60
2022-09-09T07:39:11.158Z,0.60
2022-09-09T07:41:43.594Z,0.68
2022-09-09T07:44:22.622Z,0.63
2022-09-09T07:46:49.881Z,0.60
2022-09-09T07:49:16.935Z,0.90
2022-09-09T07:51:46.413Z,0.57
2022-09-09T07:54:14.994Z,0.70
2022-09-09T07:56:42.648Z,0.60
2022-09-09T07:59:11.861Z,0.70
2022-09-09T08:01:42.034Z,0.50
2022-09-09T08:04:17.785Z,0.73
2022-09-09T08:06:56.916Z,0.60
2022-09-09T08:09:26.312Z,0.70
2022-09-09T08:11:53.004Z,0.93
2022-09-09T08:14:19.826Z,0.60
2022-09-09T08:16:50.655Z,0.50
2022-09-09T08:19:18.284Z,0.80
2022-09-09T08:21:45.930Z,1.08
2022-09-09T08:24:13.682Z,0.82
2022-09-09T08:26:45.512Z,0.75
2022-09-09T08:29:14.321Z,1.00
2022-09-09T08:31:44.458Z,0.70
2022-09-09T08:34:11.747Z,0.70
2022-09-09T08:36:45.081Z,0.75
2022-09-09T08:39:13.944Z,1.23
2022-09-09T08:42:19.078Z,1.17
2022-09-09T08:45:03.685Z,0.70
2022-09-09T08:47:54.328Z,0.45
2022-09-09T08:52:55.929Z,0.68
2022-09-09T08:55:49.528Z,0.80
2022-09-09T08:58:26.887Z,0.70
2022-09-09T09:01:11.014Z,0.80
2022-09-09T09:03:53.054Z,0.40
2022-09-09T09:06:31.970Z,0.60
2022-09-09T09:09:01.452Z,0.50
2022-09-09T09:11:28.185Z,0.80
2022-09-09T09:14:01.298Z,0.70
2022-09-09T09:16:40.130Z,0.40
2022-09-09T09:19:14.568Z,0.55
2022-09-09T09:21:49.414Z,0.70
2022-09-09T09:24:24.841Z,0.50
2022-09-09T09:26:51.641Z,0.40
2022-09-09T09:29:21.089Z,0.77
2022-09-09T09:31:55.988Z,0.80
2022-09-09T09:34:24.474Z,0.68
2022-09-09T09:36:58.761Z,0.60
2022-09-09T09:42:27.739Z,0.80
2022-09-09T09:44:54.499Z,0.75
2022-09-09T09:47:23.344Z,0.50
2022-09-09T09:54:51.231Z,0.80
2022-09-09T09:57:19.355Z,0.40
2022-09-09T09:59:47.032Z,0.40
2022-09-09T10:02:27.851Z,0.52
2022-09-09T10:05:14.855Z,0.50
2022-09-09T10:07:41.743Z,0.60
2022-09-09T10:10:29.831Z,0.70
2022-09-09T10:13:19.804Z,0.35
2022-09-09T10:15:55.849Z,0.50
2022-09-09T10:18:54.215Z,0.60
2022-09-09T10:21:21.859Z,0.50
2022-09-09T10:23:59.321Z,0.40
2022-09-09T10:26:54.050Z,0.57
2022-09-09T10:29:39.225Z,0.40
2022-09-09T10:32:21.047Z,0.60
2022-09-09T10:34:59.166Z,0.40
2022-09-09T10:38:03.144Z,0.60
2022-09-09T10:40:45.593Z,0.70
2022-09-09T10:43:39.852Z,0.60
2022-09-09T10:46:13.529Z,0.73
2022-09-09T10:48:52.476Z,0.70
2022-09-09T10:51:43.539Z,0.60
2022-09-09T10:54:16.495Z,1.13
2022-09-09T10:56:50.418Z,0.77
2022-09-09T10:59:25.380Z,1.00
2022-09-09T11:02:14.446Z,0.70
2022-09-09T11:04:48.369Z,0.75
2022-09-09T11:07:34.519Z,0.68
2022-09-09T11:10:07.658Z,0.55
2022-09-09T11:12:39.939Z,0.80
2022-09-09T11:15:24.521Z,0.43
2022-09-09T11:17:57.810Z,0.63
2022-09-09T11:20:26.341Z,0.77
2022-09-09T11:23:01.516Z,1.02
2022-09-09T11:25:38.288Z,0.40
2022-09-09T11:28:23.564Z,0.55
2022-09-09T11:31:08.679Z,0.60
2022-09-09T11:34:11.006Z,0.80
2022-09-09T11:37:08.206Z,0.73
2022-09-09T11:40:08.796Z,0.50
2022-09-09T11:42:35.717Z,0.77
2022-09-09T11:45:32.454Z,0.65
2022-09-09T11:48:01.962Z,0.50
2022-09-09T11:50:34.389Z,0.60
2022-09-09T11:53:24.597Z,0.50
2022-09-09T11:56:02.267Z,0.57
2022-09-09T11:58:33.624Z,0.68
2022-09-09T12:01:00.403Z,0.88
2022-09-09T12:03:49.822Z,1.10
2022-09-09T12:06:31.657Z,0.85
2022-09-09T12:09:09.323Z,0.77
2022-09-09T12:11:36.056Z,0.85
2022-09-09T12:14:02.812Z,0.60
2022-09-09T12:16:34.386Z,0.50
2022-09-09T12:19:17.116Z,0.60
2022-09-09T12:22:02.095Z,0.50
2022-09-09T12:25:18.235Z,0.63
2022-09-09T12:28:02.811Z,0.80
2022-09-09T12:30:54.384Z,0.60
2022-09-09T12:33:21.225Z,0.80
2022-09-09T12:35:56.536Z,0.63
2022-09-09T12:38:44.342Z,0.75
2022-09-09T12:41:26.055Z,0.60
2022-09-09T12:44:04.200Z,0.65
2022-09-09T12:46:38.632Z,0.40
2022-09-09T12:49:06.299Z,0.50
2022-09-09T12:51:39.380Z,0.60
2022-09-09T12:54:06.661Z,0.55
2022-09-09T12:56:34.260Z,0.60
2022-09-09T12:59:01.972Z,0.55
2022-09-09T13:01:34.479Z,0.50
2022-09-09T13:04:01.644Z,0.60
2022-09-09T13:06:33.170Z,1.00
2022-09-09T13:09:03.365Z,0.90
2022-09-09T13:11:48.269Z,0.70
2022-09-09T13:14:30.169Z,0.65
2022-09-09T13:17:02.337Z,0.50
2022-09-09T13:19:33.834Z,0.60
2022-09-09T13:22:00.602Z,0.68
2022-09-09T13:24:33.775Z,0.40
2022-09-09T13:27:06.739Z,0.50
2022-09-09T13:29:34.207Z,0.60
2022-09-09T13:32:29.548Z,0.70
2022-09-09T13:35:02.535Z,0.80
2022-09-09T13:37:35.473Z,0.85
2022-09-09T13:40:03.863Z,1.15
2022-09-09T13:42:33.608Z,0.90
2022-09-09T13:45:05.380Z,1.10
2022-09-09T13:47:35.552Z,0.60
2022-09-09T13:50:31.528Z,0.83
2022-09-09T13:52:59.883Z,0.70
2022-09-09T13:55:29.392Z,0.70
2022-09-09T13:57:58.911Z,0.70
2022-09-09T14:00:26.415Z,1.00
2022-09-09T14:02:57.504Z,0.75
2022-09-09T14:05:25.031Z,0.60
2022-09-09T14:07:53.313Z,0.70
2022-09-09T14:10:26.134Z,0.50
2022-09-09T14:12:57.355Z,0.73
2022-09-09T14:15:24.220Z,0.40
2022-09-09T14:17:50.904Z,0.52
2022-09-09T14:20:18.779Z,0.60
2022-09-09T14:22:45.498Z,0.85
2022-09-09T14:25:14.631Z,0.55
2022-09-09T14:27:43.445Z,0.60
2022-09-09T14:30:10.757Z,0.73
2022-09-09T14:32:37.473Z,1.00
2022-09-09T14:35:04.823Z,1.10
2022-09-09T14:37:32.331Z,0.70
2022-09-09T14:39:59.435Z,0.80
2022-09-09T14:42:27.848Z,0.90
2022-09-09T14:44:54.658Z,0.80
2022-09-09T14:47:21.431Z,1.17
2022-09-09T14:49:50.951Z,0.60
2022-09-09T14:52:18.126Z,0.60
2022-09-09T14:54:44.912Z,0.50
2022-09-09T14:57:11.687Z,0.60
2022-09-09T14:59:38.506Z,0.90
2022-09-09T15:02:05.698Z,0.80
2022-09-09T15:04:33.254Z,0.70
2022-09-09T15:07:00.364Z,0.90
2022-09-09T15:09:27.160Z,0.63
2022-09-09T15:11:53.964Z,0.70
2022-09-09T15:14:22.632Z,0.80
2022-09-09T15:16:53.976Z,0.80
2022-09-09T15:19:20.681Z,0.88
2022-09-09T15:21:47.345Z,0.70
2022-09-09T15:24:14.809Z,0.95
2022-09-09T15:26:41.742Z,0.88
2022-09-09T15:29:09.478Z,1.30
2022-09-09T15:31:36.800Z,0.70
2022-09-09T15:34:06.129Z,0.90
2022-09-09T15:36:33.298Z,0.85
2022-09-09T15:39:01.542Z,0.90
2022-09-09T15:41:29.599Z,0.75
2022-09-09T15:43:57.850Z,0.98
2022-09-09T15:46:38.474Z,1.40
2022-09-09T15:49:10.312Z,0.90
2022-09-09T15:51:42.775Z,0.98
2022-09-09T15:54:15.382Z,1.10
2022-09-09T15:56:42.880Z,1.40
2022-09-09T15:59:10.521Z,1.00
2022-09-09T16:01:37.565Z,0.93
2022-09-09T16:04:05.076Z,0.98
2022-09-09T16:06:32.361Z,1.55
2022-09-09T16:09:02.128Z,2.63
2022-09-09T16:11:32.518Z,3.03
2022-09-09T16:14:00.114Z,3.70
2022-09-09T16:16:29.179Z,1.55
2022-09-09T16:18:58.588Z,0.80
2022-09-09T16:21:35.653Z,0.80
2022-09-09T16:24:05.569Z,0.85
2022-09-09T16:26:35.996Z,0.77
2022-09-09T16:29:03.985Z,0.95
2022-09-09T16:31:33.182Z,0.73
2022-09-09T16:34:00.467Z,0.93
2022-09-09T16:36:29.647Z,0.77
2022-09-09T16:39:01.709Z,0.90
2022-09-09T16:41:30.090Z,1.10
2022-09-09T16:44:11.574Z,0.90
2022-09-09T16:46:41.264Z,1.30
2022-09-09T16:49:10.465Z,1.30
2022-09-09T16:51:43.846Z,0.80
2022-09-09T16:54:13.168Z,1.30
2022-09-09T16:56:44.607Z,0.80
2022-09-09T16:59:17.159Z,1.48
2022-09-09T17:01:45.866Z,1.10
2022-09-09T17:04:21.861Z,1.00
2022-09-09T17:06:53.397Z,1.15
2022-09-09T17:09:21.781Z,0.90
2022-09-09T17:11:51.572Z,0.95
2022-09-09T17:14:19.761Z,1.20
2022-09-09T17:16:47.793Z,1.10
2022-09-09T17:19:15.117Z,1.20
2022-09-09T17:22:05.951Z,0.90
2022-09-09T17:24:30.230Z,1.17
2022-09-09T17:26:57.312Z,1.17
2022-09-09T17:29:24.003Z,1.08
2022-09-09T17:31:50.686Z,1.10
2022-09-09T17:34:17.619Z,1.20
2022-09-09T17:36:44.326Z,1.80
2022-09-09T17:39:11.086Z,1.52
2022-09-09T17:41:39.815Z,1.70
2022-09-09T17:46:42.002Z,1.70
2022-09-09T17:49:16.902Z,1.55
2022-09-09T17:51:45.318Z,1.73
2022-09-09T17:54:17.509Z,1.70
2022-09-09T17:56:45.330Z,1.55
2022-09-09T17:59:13.730Z,1.30
2022-09-09T18:01:46.244Z,1.52
2022-09-09T18:04:14.912Z,1.27
2022-09-09T18:06:44.910Z,1.95
2022-09-09T18:09:18.914Z,1.60
2022-09-09T18:11:47.868Z,1.58
2022-09-09T18:14:18.275Z,1.80
2022-09-09T18:16:45.440Z,2.90
2022-09-09T18:19:14.355Z,1.80
2022-09-09T18:21:43.177Z,1.60
2022-09-09T18:24:12.543Z,1.40
2022-09-09T18:26:40.687Z,1.25
2022-09-09T18:29:11.676Z,2.55
2022-09-09T18:31:39.240Z,1.50
2022-09-09T18:34:08.687Z,1.23
2022-09-09T18:36:42.674Z,1.30
2022-09-09T18:39:10.399Z,1.08
2022-09-09T18:41:42.229Z,1.70
2022-09-09T18:44:22.881Z,1.25
2022-09-09T18:46:50.725Z,2.50
2022-09-09T18:49:19.080Z,5.03
2022-09-09T18:51:46.904Z,2.33
2022-09-09T18:54:20.089Z,2.75
2022-09-09T18:56:47.525Z,2.28
2022-09-09T18:59:20.157Z,2.72
2022-09-09T19:01:48.800Z,2.00
2022-09-09T19:04:16.372Z,2.42
2022-09-09T19:06:46.556Z,2.50
2022-09-09T19:09:16.199Z,3.03
2022-09-09T19:11:44.233Z,4.03
2022-09-09T19:14:13.461Z,3.05
2022-09-09T19:16:40.920Z,2.63
2022-09-09T19:19:12.464Z,2.58
2022-09-09T19:21:42.589Z,2.80
2022-09-09T19:24:15.152Z,1.95
2022-09-09T19:26:45.424Z,1.90
2022-09-09T19:29:15.733Z,2.67
2022-09-09T19:31:55.380Z,2.22
2022-09-09T19:34:31.360Z,2.55
2022-09-09T19:36:58.224Z,2.70
2022-09-09T19:39:25.264Z,2.35
2022-09-09T19:41:52.305Z,2.97
2022-09-09T19:44:19.300Z,2.33
2022-09-09T19:46:47.474Z,2.03
2022-09-09T19:49:17.847Z,2.55
2022-09-09T19:51:44.661Z,2.20
2022-09-09T19:54:16.679Z,2.15
2022-09-09T19:56:44.383Z,2.00
2022-09-09T19:59:12.939Z,2.58
2022-09-09T20:01:43.885Z,1.70
2022-09-09T20:04:11.851Z,1.90
2022-09-09T20:06:41.365Z,1.80
2022-09-09T20:09:12.011Z,2.33
2022-09-09T20:11:39.443Z,2.33
2022-09-09T20:14:06.694Z,2.15
2022-09-09T20:16:34.399Z,1.88
2022-09-09T20:19:04.797Z,1.50
2022-09-09T20:21:47.756Z,2.10
2022-09-09T20:24:17.231Z,1.70
2022-09-09T20:26:44.710Z,1.85
2022-09-09T20:29:16.385Z,1.77
2022-09-09T20:31:44.046Z,1.80
2022-09-09T20:34:13.633Z,1.50
2022-09-09T20:36:41.608Z,1.33
2022-09-09T20:39:15.228Z,1.58
2022-09-09T20:41:44.469Z,1.80
2022-09-09T20:44:17.560Z,1.88
2022-09-09T20:46:48.268Z,2.33
2022-09-09T20:49:16.716Z,3.30
2022-09-09T20:51:44.211Z,1.70
2022-09-09T20:54:20.388Z,2.20
2022-09-09T20:56:48.338Z,2.05
2022-09-09T20:59:18.713Z,1.60
2022-09-09T21:01:47.885Z,3.03
2022-09-09T21:04:17.528Z,2.85
2022-09-09T21:06:44.936Z,3.75
2022-09-09T21:09:11.999Z,1.90
2022-09-09T21:11:38.884Z,2.92
2022-09-09T21:14:06.308Z,1.80
2022-09-09T21:16:33.078Z,2.63
2022-09-09T21:19:00.365Z,4.38
2022-09-09T21:21:27.391Z,2.00
2022-09-09T21:23:59.161Z,1.88
2022-09-09T21:26:26.094Z,2.88
2022-09-09T21:28:53.846Z,1.92
2022-09-09T21:31:27.044Z,5.55
2022-09-09T21:33:54.772Z,2.38
2022-09-09T21:36:21.510Z,3.75
2022-09-09T21:38:48.257Z,6.75
2022-09-09T21:41:16.710Z,11.00
2022-09-09T21:43:45.370Z,5.57
2022-09-09T21:46:15.236Z,4.75
2022-09-09T21:48:42.427Z,2.90
2022-09-09T21:51:12.430Z,2.90
2022-09-09T21:53:39.836Z,8.68
2022-09-09T21:56:18.798Z,5.28
2022-09-09T21:58:47.532Z,5.82
2022-09-09T22:01:17.145Z,5.55
2022-09-09T22:03:45.199Z,3.55
2022-09-09T22:06:14.487Z,5.05
2022-09-09T22:08:41.792Z,4.93
2022-09-09T22:11:11.754Z,4.30
2022-09-09T22:13:38.842Z,5.28
2022-09-09T22:16:08.041Z,3.42
2022-09-09T22:18:35.597Z,2.92
2022-09-09T22:21:11.524Z,4.78
2022-09-09T22:23:38.322Z,5.70
2022-09-09T22:26:05.931Z,3.80
2022-09-09T22:28:34.358Z,4.85
2022-09-09T22:31:01.491Z,4.70
2022-09-09T22:33:31.137Z,3.40
2022-09-09T22:35:57.862Z,2.67
2022-09-09T22:38:24.578Z,3.42
2022-09-09T22:40:52.015Z,4.75
2022-09-09T22:43:21.286Z,2.58
2022-09-09T22:45:48.779Z,4.20
2022-09-09T22:48:16.193Z,3.47
2022-09-09T22:50:43.265Z,5.45
2022-09-09T22:53:14.460Z,7.13
2022-09-09T22:55:41.413Z,2.38
2022-09-09T22:58:08.334Z,2.38
2022-09-09T23:00:35.338Z,5.20
2022-09-09T23:03:02.066Z,2.80
2022-09-09T23:05:28.869Z,2.20
2022-09-09T23:07:58.659Z,2.78
2022-09-09T23:10:27.298Z,2.97
2022-09-09T23:12:54.328Z,5.28
2022-09-09T23:15:21.381Z,9.07
2022-09-09T23:17:48.126Z,2.25
2022-09-09T23:20:14.861Z,1.88
2022-09-09T23:22:41.624Z,2.17
2022-09-09T23:25:08.744Z,2.13
2022-09-09T23:27:38.732Z,1.92
2022-09-09T23:30:07.300Z,2.65
2022-09-09T23:32:34.408Z,2.17
2022-09-09T23:35:01.309Z,2.08
2022-09-09T23:37:28.073Z,2.42
2022-09-09T23:39:54.843Z,4.40
2022-09-09T23:42:21.569Z,4.32
2022-09-09T23:44:48.463Z,3.25
2022-09-09T23:47:15.310Z,3.08
2022-09-09T23:49:42.126Z,2.60
2022-09-09T23:52:08.924Z,2.20
2022-09-09T23:54:36.441Z,2.22
2022-09-09T23:57:04.068Z,2.40
2022-09-09T23:59:31.844Z,2.15
